Llandinam, United Kingdom
Current Conditions -  °F | °C
As of 10:50 AM on Friday 24 Oct 2014 (Local Time) from EGOS Reporting Station
Broken Clouds Broken Clouds  
Wind Chill: 57°   Ceiling: 4600
Heat Index: 57°   Visibility: 6mi
Dew Point: 52°   Wind: 8mph
Humidity: 82%   Direction: 230°SW
Pressure: 29.88"   Gusts: NA
Location:  52.49°N, 3.43°W
Report Text: EGOS 240950Z 23007KT 9999 FEW012 BKN046 14/11 Q1012 BLU TEMPO SCT015 WHT
Loading
Personal Weather Stations






























Interactive Weather Map
Tropical Storm Tracking
New forecast layout! Learn more

10-Day Weather Forecast

Advertisements
Track Severe Weather on mobile